Time;durP1;ratioP1;P1;durP2;ratioP2;P2;SDS_P1;SDS_P2;PMS_P1;PMS_P2;Temp;Humidity;BMP_temperature;BMP_pressure;BME280_temperature;BME280_humidity;BME280_pressure;Samples;Min_cycle;Max_cycle;Signal;HPM_P1;HPM_P2
2023/06/27 00:01:42;;;;;;;2.95;2.85;;;21.00;99.90;;;21.56;68.57;101872.13;4725236;30;20468;-76
2023/06/27 00:04:11;;;;;;;2.83;2.72;;;21.00;99.90;;;21.50;68.90;101877.72;4715809;30;20419;-76
2023/06/27 00:06:41;;;;;;;2.78;2.67;;;21.00;99.90;;;21.49;69.94;101875.09;4726258;30;20131;-76
2023/06/27 00:09:10;;;;;;;2.72;2.63;;;21.00;99.90;;;21.41;69.99;101877.16;4708017;30;20064;-76
2023/06/27 00:11:40;;;;;;;2.42;2.33;;;20.90;99.90;;;21.19;70.16;101841.13;4716149;30;20056;-75
2023/06/27 00:14:09;;;;;;;2.80;2.70;;;20.90;99.90;;;21.51;70.23;101874.13;4716327;30;20089;-76
2023/06/27 00:16:39;;;;;;;2.65;2.55;;;21.00;99.90;;;21.41;70.97;101871.75;4700737;30;20057;-77
2023/06/27 00:19:08;;;;;;;2.75;2.65;;;20.90;99.90;;;21.46;71.23;101869.81;4718309;30;20416;-76
2023/06/27 00:21:37;;;;;;;2.77;2.67;;;20.90;99.90;;;21.41;70.52;101861.00;4724579;30;20461;-76
2023/06/27 00:24:06;;;;;;;2.90;2.80;;;21.00;99.90;;;21.49;71.00;101883.16;4725959;30;20130;-76
2023/06/27 00:26:35;;;;;;;2.47;2.38;;;21.00;99.90;;;21.53;71.59;101882.13;4724114;30;20121;-75
2023/06/27 00:29:04;;;;;;;2.30;2.20;;;21.00;99.90;;;21.54;71.82;101889.31;4707679;30;20053;-76
2023/06/27 00:31:32;;;;;;;2.65;2.55;;;21.00;99.90;;;21.41;72.39;101891.50;4723247;30;20056;-75
2023/06/27 00:34:01;;;;;;;2.40;2.30;;;20.90;99.90;;;21.45;71.87;101881.50;4710434;30;20079;-76
2023/06/27 00:36:30;;;;;;;2.65;2.55;;;20.90;99.90;;;21.46;71.41;101878.78;4724086;30;20063;-76
2023/06/27 00:38:59;;;;;;;2.55;2.45;;;20.90;99.90;;;21.43;71.69;101875.28;4716602;30;20147;-76
2023/06/27 00:41:28;;;;;;;2.50;2.40;;;21.00;99.90;;;21.47;71.12;101882.34;4724807;30;20136;-76
2023/06/27 00:43:58;;;;;;;2.58;2.47;;;21.00;99.90;;;21.50;70.97;101874.19;4715446;30;20385;-76
2023/06/27 00:46:35;;;;;;;2.70;2.60;;;21.00;99.90;;;20.97;71.24;101802.34;4710008;30;20056;-76
2023/06/27 00:49:06;;;;;;;2.72;2.63;;;21.00;99.90;;;21.40;71.47;101888.88;4723897;30;20049;-76
2023/06/27 00:51:36;;;;;;;2.70;2.60;;;20.90;99.90;;;21.38;72.47;101888.03;4725441;30;20135;-76
2023/06/27 00:54:05;;;;;;;2.75;2.65;;;20.90;99.90;;;21.37;73.11;101891.63;4724489;30;20053;-76
2023/06/27 00:56:34;;;;;;;2.60;2.50;;;20.80;99.90;;;21.41;73.26;101893.31;4708843;30;20052;-76
2023/06/27 00:59:03;;;;;;;2.63;2.53;;;20.90;99.90;;;21.53;72.47;101891.09;4726401;30;20463;-76
2023/06/27 01:01:32;;;;;;;2.60;2.50;;;21.00;99.90;;;21.64;71.70;101882.66;4711385;30;20601;-76
2023/06/27 01:04:01;;;;;;;2.65;2.55;;;21.10;99.90;;;21.65;71.24;101879.03;4729528;30;20060;-76
2023/06/27 01:06:37;;;;;;;2.90;2.80;;;21.20;99.90;;;21.75;70.90;101885.88;4719188;30;20388;-75
2023/06/27 01:09:11;;;;;;;2.72;2.63;;;21.30;99.90;;;21.72;71.35;101880.59;4727728;30;20087;-76
2023/06/27 01:11:45;;;;;;;2.53;2.42;;;21.30;99.90;;;21.76;70.63;101873.28;4727464;30;20485;-76
2023/06/27 01:14:17;;;;;;;2.60;2.50;;;21.40;99.90;;;21.83;70.08;101870.38;4729652;30;20052;-76
2023/06/27 01:16:49;;;;;;;2.67;2.58;;;21.40;99.90;;;21.87;69.81;101874.72;4726980;30;20082;-76
2023/06/27 01:19:22;;;;;;;2.58;2.47;;;21.50;99.90;;;21.91;69.73;101881.72;4728357;30;20060;-76
2023/06/27 01:22:01;;;;;;;2.53;2.42;;;21.50;99.90;;;21.92;69.63;101878.13;4727306;30;20130;-75
2023/06/27 01:24:31;;;;;;;2.60;2.50;;;21.50;99.90;;;21.88;69.74;101873.78;4719046;30;20077;-76
2023/06/27 01:27:01;;;;;;;2.50;2.40;;;21.50;99.90;;;21.82;71.19;101879.38;4719417;30;20404;-76
2023/06/27 01:29:30;;;;;;;2.38;2.28;;;21.30;99.90;;;21.77;71.74;101878.63;4703281;30;20060;-76
2023/06/27 01:32:09;;;;;;;2.63;2.53;;;21.30;99.90;;;21.76;71.10;101871.47;4722728;30;20041;-76
2023/06/27 01:34:50;;;;;;;2.25;2.15;;;21.30;99.90;;;21.74;70.98;101869.78;4710952;30;20364;-76
2023/06/27 01:37:24;;;;;;;2.58;2.47;;;21.30;99.90;;;21.10;71.87;101766.94;4726794;30;20503;-76
2023/06/27 01:40:02;;;;;;;2.30;2.20;;;21.20;99.90;;;21.63;72.74;101866.53;4726928;30;20049;-76
2023/06/27 01:42:36;;;;;;;2.50;2.40;;;21.20;99.90;;;21.60;73.03;101875.63;4719488;30;20059;-75
2023/06/27 01:45:09;;;;;;;2.60;2.50;;;21.10;99.90;;;21.60;72.38;101867.56;4727066;30;20123;-76
2023/06/27 01:47:42;;;;;;;2.05;1.95;;;21.10;99.90;;;21.62;72.40;101875.56;4718169;30;20198;-77
2023/06/27 01:50:13;;;;;;;2.75;2.65;;;21.10;99.90;;;20.98;72.79;101761.06;4729287;30;20053;-76
2023/06/27 01:52:42;;;;;;;2.80;2.70;;;21.10;99.90;;;21.55;73.08;101872.19;4713578;30;20064;-76
2023/06/27 01:55:13;;;;;;;2.50;2.40;;;21.00;99.90;;;21.44;74.13;101869.88;4725532;30;20147;-76
2023/06/27 01:57:41;;;;;;;10.82;3.22;;;20.90;99.90;;;21.37;74.20;101873.69;4727316;30;20152;-76
2023/06/27 02:00:11;;;;;;;2.33;2.22;;;20.90;99.90;;;21.37;74.34;101879.06;4711591;30;20531;-75
2023/06/27 02:02:45;;;;;;;2.97;2.88;;;20.80;99.90;;;21.35;74.34;101878.22;4726046;30;20535;-75
2023/06/27 02:05:15;;;;;;;2.60;2.50;;;20.80;99.90;;;21.39;74.30;101884.41;4725632;30;20156;-73
2023/06/27 02:07:44;;;;;;;2.67;2.58;;;20.90;99.90;;;21.29;75.33;101861.44;4728490;30;20139;-76
2023/06/27 02:10:13;;;;;;;2.65;2.55;;;20.80;99.90;;;21.31;75.29;101878.41;4725203;30;20049;-76
2023/06/27 02:12:42;;;;;;;2.60;2.50;;;20.80;99.90;;;21.33;74.76;101871.16;4718651;30;20056;-75
2023/06/27 02:15:11;;;;;;;2.72;2.63;;;20.80;99.90;;;21.30;73.88;101865.88;4725810;30;20373;-76
2023/06/27 02:17:39;;;;;;;3.00;2.90;;;20.80;99.90;;;21.22;73.71;101855.34;4710965;30;20083;-76
2023/06/27 02:20:08;;;;;;;2.67;2.58;;;20.80;99.90;;;21.25;74.24;101865.16;4727442;30;20057;-76
2023/06/27 02:22:37;;;;;;;2.50;2.40;;;20.80;99.90;;;21.19;75.43;101863.53;4726163;30;20396;-76
2023/06/27 02:25:08;;;;;;;2.70;2.60;;;20.70;99.90;;;21.12;76.33;101858.38;4727021;30;20134;-76
2023/06/27 02:27:38;;;;;;;2.58;2.47;;;20.60;99.90;;;21.03;75.73;101854.19;4718009;30;20057;-76
2023/06/27 02:30:08;;;;;;;2.83;2.73;;;20.50;99.90;;;20.95;75.75;101850.81;4709266;30;20111;-76
2023/06/27 02:32:37;;;;;;;;;;;20.50;99.90;;;20.86;75.49;101851.13;4725332;30;20295;-76
2023/06/27 02:35:06;;;;;;;3.13;3.03;;;20.30;99.90;;;20.90;75.43;101850.09;4726514;30;19930;-75
2023/06/27 02:37:34;;;;;;;2.50;2.40;;;20.40;99.90;;;20.94;75.23;101856.25;4726001;30;20063;-75
2023/06/27 02:40:05;;;;;;;2.65;2.55;;;20.40;99.90;;;20.83;76.01;101851.19;4727202;30;20057;-75
2023/06/27 02:42:34;;;;;;;2.88;2.78;;;20.40;99.90;;;20.82;76.76;101862.00;4725252;30;20115;-75
2023/06/27 02:45:05;;;;;;;2.80;2.70;;;20.30;99.90;;;20.69;77.08;101851.59;4728003;30;20071;-75
2023/06/27 02:47:34;;;;;;;2.25;2.15;;;20.20;99.90;;;20.69;76.83;101857.00;4725159;30;20052;-75
2023/06/27 02:50:03;;;;;;;3.03;2.92;;;20.20;99.90;;;20.59;76.79;101846.56;4711455;30;20064;-75
2023/06/27 02:52:31;;;;;;;2.70;2.60;;;20.20;99.90;;;20.65;77.47;101851.78;4724814;30;20539;-75
2023/06/27 02:55:00;;;;;;;2.53;2.42;;;20.10;99.90;;;20.61;77.23;101853.66;4726492;30;20045;-74
2023/06/27 02:57:29;;;;;;;2.40;2.30;;;20.10;99.90;;;20.63;77.55;101859.84;4725180;30;20056;-75
2023/06/27 02:59:59;;;;;;;2.80;2.70;;;20.10;99.90;;;20.64;78.10;101861.63;4724155;30;20059;-73
2023/06/27 03:02:29;;;;;;;2.30;2.20;;;20.20;99.90;;;20.66;77.54;101865.16;4725930;30;20553;-75
2023/06/27 03:04:58;;;;;;;2.30;2.20;;;20.20;99.90;;;20.58;77.43;101859.13;4724417;30;20107;-76
2023/06/27 03:07:26;;;;;;;2.63;2.53;;;20.10;99.90;;;20.53;77.96;101869.16;4701489;30;20053;-75
2023/06/27 03:09:55;;;;;;;2.35;2.25;;;20.00;99.90;;;20.48;79.24;101871.06;4717053;30;20091;-75
2023/06/27 03:12:23;;;;;;;2.65;2.55;;;20.00;99.90;;;20.47;78.98;101863.06;4701481;30;20072;-75
2023/06/27 03:14:52;;;;;;;2.67;2.58;;;19.90;99.90;;;20.47;79.02;101863.06;4710473;30;20088;-75
2023/06/27 03:17:21;;;;;;;2.70;2.60;;;19.90;99.90;;;20.30;78.96;101834.00;4725828;30;20067;-75
2023/06/27 03:19:51;;;;;;;3.20;3.10;;;20.00;99.90;;;20.54;79.18;101867.31;4709792;30;20056;-75
2023/06/27 03:22:19;;;;;;;3.00;2.90;;;20.00;99.90;;;20.55;77.89;101861.03;4721664;30;20124;-77
2023/06/27 03:24:48;;;;;;;2.72;2.63;;;20.10;99.90;;;20.56;77.58;101863.66;4725515;30;20069;-75
2023/06/27 03:27:20;;;;;;;2.65;2.55;;;20.00;99.90;;;20.01;77.14;101764.06;4708494;30;20049;-75
2023/06/27 03:29:48;;;;;;;2.78;2.67;;;20.10;99.90;;;20.58;77.80;101872.56;4715802;30;20064;-75
2023/06/27 03:32:17;;;;;;;2.70;2.60;;;20.10;99.90;;;20.67;77.48;101872.28;4716981;30;20063;-73
2023/06/27 03:34:47;;;;;;;2.53;2.42;;;20.20;99.90;;;20.79;76.72;101875.56;4701131;30;20138;-75
2023/06/27 03:37:19;;;;;;;2.47;2.38;;;20.30;99.90;;;20.86;76.55;101883.38;4715435;30;20064;-75
2023/06/27 03:39:47;;;;;;;2.35;2.25;;;20.40;99.90;;;20.89;76.25;101882.38;4724722;30;20094;-74
2023/06/27 03:42:16;;;;;;;3.20;3.03;;;20.50;99.90;;;20.86;75.90;101877.13;4715818;30;20373;-75
2023/06/27 03:44:45;;;;;;;2.50;2.40;;;20.50;99.90;;;20.88;75.80;101880.66;4726730;30;20090;-75
2023/06/27 03:47:15;;;;;;;2.95;2.85;;;20.50;99.90;;;20.87;75.49;101879.75;4708110;30;20050;-75
2023/06/27 03:49:43;;;;;;;2.85;2.75;;;20.50;99.90;;;20.78;76.63;101873.78;4710968;30;20071;-75
2023/06/27 03:52:12;;;;;;;2.60;2.50;;;20.40;99.90;;;20.75;77.73;101873.88;4708541;30;20063;-75
2023/06/27 03:54:41;;;;;;;2.40;2.30;;;20.30;99.90;;;20.19;78.24;101803.00;4722289;30;20055;-75
2023/06/27 03:57:15;;;;;;;2.40;2.30;;;20.20;99.90;;;20.55;78.60;101883.44;4724613;30;20056;-75
2023/06/27 03:59:45;;;;;;;2.47;2.37;;;20.10;99.90;;;20.57;78.93;101886.97;4708818;30;20496;-75
2023/06/27 04:02:14;;;;;;;2.80;2.70;;;20.10;99.90;;;20.51;79.18;101886.25;4725516;30;20068;-74
2023/06/27 04:04:43;;;;;;;2.60;2.50;;;20.00;99.90;;;20.48;78.56;101872.88;4722180;30;20057;-75
2023/06/27 04:07:11;;;;;;;2.60;2.50;;;20.00;99.90;;;20.61;78.58;101885.91;4723751;30;20486;-75
2023/06/27 04:09:41;;;;;;;2.33;2.22;;;20.10;99.90;;;20.63;77.41;101892.13;4717548;30;20416;-74
2023/06/27 04:12:10;;;;;;;2.90;2.80;;;20.10;99.90;;;20.55;77.90;101887.91;4725124;30;20068;-74
2023/06/27 04:14:40;;;;;;;2.42;2.33;;;20.10;99.90;;;20.43;79.10;101875.72;4716465;30;20527;-73
2023/06/27 04:17:08;;;;;;;3.00;2.90;;;20.00;99.90;;;20.48;79.60;101889.00;4724502;30;20053;-76
2023/06/27 04:19:37;;;;;;;2.50;2.40;;;20.00;99.90;;;20.56;79.66;101876.22;4723386;30;20053;-75
2023/06/27 04:22:06;;;;;;;2.92;2.83;;;20.00;99.90;;;20.62;79.12;101889.50;4708462;30;20061;-75
2023/06/27 04:24:35;;;;;;;2.63;2.53;;;20.10;99.90;;;20.60;78.76;101886.84;4710897;30;20080;-75
2023/06/27 04:27:08;;;;;;;2.28;2.17;;;20.10;99.90;;;20.62;78.61;101887.69;4700845;30;20111;-74
2023/06/27 04:29:37;;;;;;;2.50;2.40;;;20.10;99.90;;;20.58;76.96;101896.78;4716415;30;20462;-75
2023/06/27 04:32:07;;;;;;;2.60;2.50;;;20.20;99.90;;;20.61;76.32;101893.97;4716439;30;20487;-75
2023/06/27 04:34:36;;;;;;;2.30;2.20;;;20.20;99.90;;;20.13;76.36;101813.88;4725202;30;20385;-75
2023/06/27 04:37:05;;;;;;;2.80;2.70;;;20.20;99.90;;;20.62;77.63;101897.56;4728102;30;20079;-75
2023/06/27 04:39:33;;;;;;;2.70;2.60;;;20.20;99.90;;;20.59;77.92;101897.66;4728148;30;20065;-75
2023/06/27 04:42:02;;;;;;;2.65;2.55;;;20.10;99.90;;;20.57;76.39;101892.34;4727048;30;20145;-76
2023/06/27 04:44:32;;;;;;;2.58;2.47;;;20.10;99.90;;;20.57;75.55;101895.03;4729880;30;20118;-76
2023/06/27 04:47:00;;;;;;;2.63;2.53;;;20.10;99.90;;;20.63;75.39;101904.72;4726840;30;20057;-75
2023/06/27 04:49:28;;;;;;;2.33;2.22;;;20.20;99.90;;;20.68;75.40;101900.97;4729268;30;20506;-75
2023/06/27 04:51:57;;;;;;;2.72;2.63;;;20.20;99.90;;;20.74;76.87;101899.00;4727459;30;20115;-76
2023/06/27 04:54:25;;;;;;;2.58;2.47;;;20.30;99.90;;;20.14;76.13;101795.00;4728756;30;20076;-76
2023/06/27 04:56:54;;;;;;;2.60;2.50;;;20.30;99.90;;;20.68;75.18;101886.63;4728223;30;20102;-75
2023/06/27 04:59:40;;;;;;;2.75;2.65;;;20.30;99.90;;;20.77;74.44;101902.47;4726822;30;20053;-75
2023/06/27 05:02:09;;;;;;;2.60;2.50;;;20.30;99.90;;;20.84;74.24;101897.81;4729250;30;20084;-75
2023/06/27 05:04:37;;;;;;;2.78;2.67;;;20.40;99.90;;;20.92;74.19;101901.16;4727442;30;20053;-77
2023/06/27 05:07:06;;;;;;;2.90;2.80;;;20.50;99.90;;;20.97;74.69;101899.19;4727914;30;20056;-76
2023/06/27 05:09:34;;;;;;;2.50;2.40;;;20.50;99.90;;;21.08;74.73;101907.88;4710954;30;20586;-76
2023/06/27 05:12:03;;;;;;;2.83;2.72;;;20.60;99.90;;;21.12;74.38;101902.31;4728297;30;20084;-78
2023/06/27 05:14:31;;;;;;;8.93;8.10;;;20.70;99.90;;;21.11;74.52;101905.06;4726716;30;20440;-77
2023/06/27 05:17:01;;;;;;;3.10;3.00;;;20.70;99.90;;;21.10;74.99;101906.88;4729043;30;20056;-77
2023/06/27 05:19:30;;;;;;;3.30;3.10;;;20.70;99.90;;;21.34;73.41;101907.91;4719515;30;20060;-76
2023/06/27 05:21:58;;;;;;;2.70;2.60;;;20.80;99.90;;;21.29;72.39;101893.72;4703469;30;20049;-77
2023/06/27 05:24:27;;;;;;;2.83;2.72;;;20.90;99.90;;;21.39;71.96;101903.25;4719079;30;20459;-76
2023/06/27 05:26:55;;;;;;;2.55;2.45;;;20.90;99.90;;;21.39;71.77;101908.63;4719804;30;20052;-76
2023/06/27 05:29:24;;;;;;;3.10;3.00;;;21.00;99.90;;;21.40;71.63;101907.72;4727980;30;20396;-77
2023/06/27 05:31:54;;;;;;;2.70;2.60;;;21.00;99.90;;;21.45;71.26;101909.31;4728052;30;20542;-77
2023/06/27 05:34:25;;;;;;;2.88;2.78;;;21.10;99.90;;;21.49;71.16;101907.41;4726865;30;20049;-77
2023/06/27 05:36:53;;;;;;;;;;;21.10;99.90;;;21.46;71.04;101912.91;4729076;30;20586;-76
2023/06/27 05:39:21;;;;;;;2.65;2.55;;;21.10;99.90;;;21.45;71.59;101905.75;4726456;30;19953;-77
2023/06/27 05:41:50;;;;;;;2.63;2.53;;;21.10;99.90;;;21.40;71.37;101913.09;4719049;30;20060;-78
2023/06/27 05:44:18;;;;;;;2.70;2.60;;;21.00;99.90;;;21.52;71.92;101908.19;4718101;30;20107;-77
2023/06/27 05:46:48;;;;;;;2.97;2.88;;;21.10;99.90;;;21.54;71.24;101911.69;4718834;30;20045;-79
2023/06/27 05:49:17;;;;;;;3.53;3.40;;;21.20;99.90;;;21.60;70.57;101913.34;4717561;30;20067;-76
2023/06/27 05:51:47;;;;;;;2.95;2.85;;;21.30;99.90;;;21.69;71.37;101939.06;4726963;30;20056;-79
2023/06/27 05:54:15;;;;;;;2.67;2.58;;;21.30;99.90;;;21.77;70.32;101907.38;4726877;30;20053;-77
2023/06/27 05:56:44;;;;;;;3.03;2.92;;;21.40;99.90;;;21.90;69.47;101908.75;4727772;30;20118;-77
2023/06/27 05:59:12;;;;;;;2.80;2.70;;;21.50;99.90;;;21.97;70.05;101921.94;4726481;30;20049;-77
2023/06/27 06:01:41;;;;;;;3.17;3.08;;;21.60;99.90;;;22.07;69.13;101918.00;4728395;30;20056;-78
2023/06/27 06:04:10;;;;;;;3.70;3.55;;;21.80;99.90;;;22.17;68.82;101915.84;4725378;30;20057;-78
2023/06/27 06:06:39;;;;;;;2.97;2.88;;;21.90;99.90;;;22.16;67.23;101917.66;4718325;30;20053;-77
2023/06/27 06:09:09;;;;;;;2.88;2.78;;;21.90;99.90;;;22.11;67.90;101922.34;4702569;30;20156;-79
2023/06/27 06:11:37;;;;;;;3.17;3.08;;;21.80;99.90;;;21.99;67.43;101922.78;4718342;30;20402;-79
2023/06/27 06:14:05;;;;;;;4.03;3.83;;;21.70;99.90;;;21.99;66.74;101919.22;4725024;30;20079;-79
2023/06/27 06:16:35;;;;;;;3.30;3.20;;;21.70;99.90;;;21.88;67.37;101921.38;4726740;30;20264;-77
2023/06/27 06:19:04;;;;;;;2.95;2.85;;;21.50;99.90;;;21.91;66.67;101927.53;4726205;30;20128;-78
2023/06/27 06:21:32;;;;;;;2.55;2.45;;;21.50;99.90;;;22.27;66.08;101931.66;4727652;30;20139;-79
2023/06/27 06:24:02;;;;;;;2.80;2.70;;;21.80;99.90;;;22.48;65.01;101923.72;4725342;30;20053;-78
2023/06/27 06:26:31;;;;;;;3.58;3.28;;;22.10;99.90;;;21.87;62.35;101801.09;4728497;30;20098;-78
2023/06/27 06:29:00;;;;;;;2.65;2.55;;;22.30;99.90;;;22.58;62.65;101936.84;4717891;30;20135;-77
2023/06/27 06:31:28;;;;;;;2.53;2.42;;;22.30;99.90;;;22.76;62.67;101932.59;4717802;30;20133;-78
2023/06/27 06:33:57;;;;;;;2.53;2.42;;;22.40;99.90;;;22.93;61.64;101943.63;4717772;30;20558;-74
2023/06/27 06:36:25;;;;;;;2.28;2.17;;;22.60;99.90;;;23.02;59.97;101940.56;4721075;30;20084;-68
2023/06/27 06:38:54;;;;;;;2.25;2.15;;;22.70;99.90;;;23.03;58.76;101939.66;4726306;30;20145;-67
2023/06/27 06:41:22;;;;;;;2.88;2.78;;;22.80;99.90;;;23.12;58.82;101944.66;4725996;30;20144;-69
2023/06/27 06:43:52;;;;;;;2.40;2.30;;;22.80;99.90;;;23.20;59.18;101942.56;4726921;30;20119;-69
2023/06/27 06:46:20;;;;;;;2.13;2.03;;;22.90;99.90;;;23.23;57.39;101951.41;4724840;30;20080;-69
2023/06/27 06:48:49;;;;;;;2.80;2.70;;;23.00;99.90;;;23.18;56.68;101958.81;4728190;30;20056;-68
2023/06/27 06:51:18;;;;;;;2.50;2.40;;;22.90;99.90;;;23.27;56.58;101965.66;4717945;30;20160;-67
2023/06/27 06:53:46;;;;;;;2.70;2.60;;;23.00;99.90;;;23.30;56.41;101949.34;4717465;30;20060;-68
2023/06/27 06:56:14;;;;;;;2.53;2.42;;;23.00;99.90;;;23.31;55.77;101951.13;4717185;30;20404;-70
2023/06/27 06:58:43;;;;;;;2.58;2.47;;;23.10;99.90;;;23.39;54.37;101948.13;4702750;30;20061;-67
2023/06/27 07:01:13;;;;;;;2.40;2.30;;;23.10;99.90;;;23.29;54.07;101943.06;4726160;30;20116;-69
2023/06/27 07:03:43;;;;;;;2.50;2.40;;;23.10;99.90;;;23.29;54.97;101947.59;4724939;30;20057;-68
2023/06/27 07:06:11;;;;;;;2.30;2.20;;;23.10;99.90;;;22.73;55.33;101849.94;4716554;30;20061;-70
2023/06/27 07:08:40;;;;;;;2.33;2.22;;;23.10;99.90;;;23.22;55.76;101951.47;4727298;30;20072;-70
2023/06/27 07:11:09;;;;;;;2.75;2.65;;;23.00;99.90;;;23.28;55.82;101957.53;4724187;30;20527;-69
2023/06/27 07:13:37;;;;;;;2.80;2.70;;;23.10;99.90;;;23.05;55.44;101935.06;4717192;30;20464;-69
2023/06/27 07:16:06;;;;;;;2.80;2.70;;;23.00;99.90;;;23.10;55.77;101957.34;4716867;30;20570;-68
2023/06/27 07:18:35;;;;;;;3.30;3.20;;;22.80;99.90;;;23.13;55.97;101955.41;4716938;30;20119;-70
2023/06/27 07:21:04;;;;;;;2.70;2.60;;;22.80;99.90;;;23.06;55.50;101956.59;4720447;30;20053;-72
2023/06/27 07:23:32;;;;;;;2.22;2.13;;;22.80;99.90;;;23.14;55.45;101954.47;4708726;30;20307;-79
2023/06/27 07:26:01;;;;;;;9.32;4.22;;;22.90;99.90;;;23.14;55.87;101961.69;4725755;30;20053;-72
2023/06/27 07:28:30;;;;;;;6.18;3.80;;;22.90;99.90;;;23.02;55.43;101956.75;4725241;30;20075;-73
2023/06/27 07:30:58;;;;;;;5.75;3.53;;;22.80;99.90;;;23.05;56.01;101960.22;4726296;30;20045;-71
2023/06/27 07:33:27;;;;;;;5.75;3.28;;;22.70;99.90;;;22.98;57.66;101953.31;4724219;30;20052;-73
2023/06/27 07:35:57;;;;;;;7.63;3.50;;;22.70;99.90;;;23.05;56.42;101957.50;4727024;30;20138;-69
2023/06/27 07:38:25;;;;;;;9.38;3.67;;;22.70;99.90;;;23.06;56.98;101958.41;4724089;30;20511;-67
2023/06/27 07:40:53;;;;;;;8.52;3.28;;;22.70;99.90;;;23.12;57.17;101955.47;4726775;30;20079;-70
2023/06/27 07:43:25;;;;;;;5.38;3.25;;;22.80;99.90;;;23.15;57.30;101960.78;4725326;30;20056;-71
2023/06/27 07:45:53;;;;;;;7.88;3.67;;;22.80;99.90;;;23.16;56.22;101955.31;4725252;30;20065;-69
2023/06/27 07:48:22;;;;;;;4.97;3.33;;;22.80;99.90;;;23.12;55.29;101934.75;4725351;30;20128;-68
2023/06/27 07:50:51;;;;;;;6.90;3.75;;;22.90;99.90;;;23.16;56.39;101958.00;4724920;30;20080;-69
2023/06/27 07:53:21;;;;;;;5.72;3.33;;;22.80;99.90;;;23.15;56.81;101955.38;4726115;30;20143;-68
2023/06/27 07:55:50;;;;;;;6.63;3.47;;;22.80;99.90;;;23.16;56.90;101960.69;4723625;30;20107;-68
2023/06/27 07:58:18;;;;;;;6.43;3.72;;;22.80;99.90;;;23.13;55.98;101963.50;4723591;30;20057;-68
2023/06/27 08:00:47;;;;;;;5.35;3.20;;;22.80;99.90;;;23.11;55.35;101970.78;4726525;30;20373;-69
2023/06/27 08:03:15;;;;;;;5.70;3.50;;;22.70;99.90;;;23.10;53.49;101969.03;4724292;30;20139;-70
2023/06/27 08:05:44;;;;;;;6.65;3.72;;;22.80;99.90;;;23.16;54.16;101974.22;4725616;30;20057;-73
2023/06/27 08:08:12;;;;;;;6.93;3.50;;;22.80;99.90;;;23.33;56.20;101975.38;4724300;30;20048;-73
2023/06/27 08:10:42;;;;;;;10.63;3.42;;;23.00;99.90;;;23.44;54.92;101967.75;4716492;30;20061;-73
2023/06/27 08:13:11;;;;;;;5.13;3.38;;;23.10;99.90;;;23.36;53.57;101976.16;4725655;30;20057;-71
2023/06/27 08:15:40;;;;;;;6.65;3.50;;;23.10;99.90;;;23.30;54.19;101966.44;4715367;30;20056;-73
2023/06/27 08:18:08;;;;;;;13.43;3.30;;;22.90;99.90;;;23.27;54.98;101965.66;4726445;30;20496;-73
2023/06/27 08:20:37;;;;;;;7.63;3.22;;;22.80;99.90;;;23.31;55.32;101961.94;4715119;30;20149;-71
2023/06/27 08:23:07;;;;;;;4.80;3.17;;;22.90;99.90;;;23.48;54.81;101975.66;4723553;30;20596;-72
2023/06/27 08:25:35;;;;;;;7.72;3.90;;;23.00;99.90;;;23.38;54.08;101963.47;4725979;30;20112;-71
2023/06/27 08:28:06;;;;;;;9.07;3.80;;;23.00;99.90;;;23.47;54.15;101973.91;4724583;30;20457;-71
2023/06/27 08:30:34;;;;;;;6.38;3.35;;;23.00;99.90;;;23.57;54.02;101964.50;4725403;30;20045;-71
2023/06/27 08:33:04;;;;;;;8.32;3.28;;;23.10;99.90;;;23.59;54.07;101970.72;4725196;30;20057;-71
2023/06/27 08:35:35;;;;;;;5.53;3.25;;;23.20;99.90;;;23.58;54.03;101971.63;4724158;30;20053;-72
2023/06/27 08:38:03;;;;;;;;;;;23.20;99.90;;;23.72;53.35;101966.56;4725721;30;20060;-71
2023/06/27 08:40:35;;;;;;;6.05;3.47;;;23.40;99.90;;;23.77;53.92;101961.84;4723446;30;19927;-73
2023/06/27 08:43:09;;;;;;;7.57;3.65;;;23.40;99.90;;;23.50;50.99;101957.56;4724248;30;20068;-72
2023/06/27 08:45:39;;;;;;;7.00;3.28;;;23.30;99.90;;;23.64;50.81;101965.09;4725465;30;20094;-69
2023/06/27 08:48:10;;;;;;;5.95;3.65;;;23.30;99.90;;;23.68;53.63;101969.44;4725293;30;20127;-70
2023/06/27 08:50:40;;;;;;;7.15;3.35;;;23.30;99.90;;;23.43;53.79;101933.56;4723823;30;20065;-71
2023/06/27 08:53:13;;;;;;;5.53;3.40;;;23.20;99.90;;;23.55;53.24;101971.78;4726600;30;20073;-71
2023/06/27 08:55:51;;;;;;;7.88;3.30;;;23.20;99.90;;;23.46;53.12;101972.13;4723645;30;20053;-71
2023/06/27 08:58:25;;;;;;;8.57;3.15;;;23.10;99.90;;;23.26;52.34;101972.03;4724294;30;20134;-71
2023/06/27 09:00:54;;;;;;;6.00;3.45;;;22.90;99.90;;;23.20;52.25;101972.25;4726123;30;20109;-71
2023/06/27 09:03:24;;;;;;;7.20;3.67;;;22.90;99.90;;;23.16;54.10;101967.91;4722907;30;20207;-76
2023/06/27 09:05:54;;;;;;;8.00;3.50;;;22.80;99.90;;;22.43;54.99;101867.28;4726026;30;20052;-76
2023/06/27 09:08:23;;;;;;;8.73;3.70;;;22.70;99.90;;;23.11;54.29;101980.72;4724203;30;20554;-72
2023/06/27 09:10:52;;;;;;;8.18;3.90;;;22.80;99.90;;;23.11;54.76;101991.53;4725035;30;20060;-73
2023/06/27 09:13:23;;;;;;;6.50;3.50;;;22.80;99.90;;;23.16;54.60;101986.81;4725101;30;20064;-67
2023/06/27 09:15:52;;;;;;;8.50;3.90;;;22.80;99.90;;;22.60;53.64;101899.03;4723729;30;20053;-65
2023/06/27 09:18:21;;;;;;;8.10;3.50;;;22.80;99.90;;;22.93;55.49;101967.91;4725895;30;20053;-70
2023/06/27 09:20:49;;;;;;;7.20;3.72;;;22.70;99.90;;;23.03;55.88;101982.84;4726214;30;20056;-77
2023/06/27 09:23:18;;;;;;;11.88;4.15;;;22.70;99.90;;;22.93;56.42;101976.91;4719260;30;20052;-76
2023/06/27 09:25:46;;;;;;;13.43;3.80;;;22.60;99.90;;;22.95;55.44;101971.44;4718757;30;20064;-76
2023/06/27 09:28:17;;;;;;;51.85;6.15;;;22.60;99.90;;;22.85;55.61;101978.13;4703215;30;20470;-75
2023/06/27 09:30:58;;;;;;;7.07;3.65;;;22.60;99.90;;;22.87;56.86;101970.84;4722283;30;20056;-72
2023/06/27 09:33:27;;;;;;;5.35;3.30;;;22.50;99.90;;;23.01;55.90;101979.31;4729202;30;20156;-70
2023/06/27 09:35:55;;;;;;;5.00;3.50;;;22.70;99.90;;;22.85;55.66;101972.72;4703031;30;20052;-66
2023/06/27 09:38:32;;;;;;;7.95;3.55;;;22.60;99.90;;;22.91;56.13;101950.91;4718750;30;20053;-66
2023/06/27 09:41:05;;;;;;;7.43;3.47;;;22.60;99.90;;;23.13;54.24;101974.31;4720671;30;20049;-67
2023/06/27 09:43:35;;;;;;;6.45;3.35;;;22.80;99.90;;;23.19;54.38;101963.28;4726272;30;20418;-68
2023/06/27 09:46:06;;;;;;;7.90;3.75;;;22.80;99.90;;;23.33;53.10;101968.16;4711632;30;20069;-67
2023/06/27 09:48:36;;;;;;;9.02;3.78;;;23.00;99.90;;;23.14;53.23;101977.91;4691338;30;20061;-69
2023/06/27 09:51:07;;;;;;;7.65;3.53;;;22.90;99.90;;;23.07;51.72;101977.25;4693376;30;20174;-69
2023/06/27 09:53:35;;;;;;;;;;;22.80;99.90;;;22.93;52.77;101967.91;4692764;30;20119;-70
2023/06/27 09:56:04;;;;;;;7.13;3.45;;;22.70;99.90;;;22.46;53.32;101888.72;4692259;30;19927;-69
2023/06/27 09:58:33;;;;;;;8.40;3.03;;;22.60;99.90;;;23.00;53.08;101964.94;4691189;30;20081;-69
2023/06/27 10:01:06;;;;;;;5.72;3.42;;;22.70;99.90;;;23.06;53.12;101980.88;4691672;30;20054;-68
2023/06/27 10:03:36;;;;;;;7.43;3.72;;;22.70;99.90;;;;;;4690785;30;20053;-70
2023/06/27 10:06:05;;;;;;;6.85;4.22;;;22.60;99.90;;;23.02;52.91;101979.25;4691236;30;20053;-70
2023/06/27 10:08:40;;;;;;;5.10;3.72;;;22.60;99.90;;;23.29;52.08;101980.00;4692274;30;20107;-70
2023/06/27 10:11:09;;;;;;;8.48;3.97;;;22.90;99.90;;;23.37;51.34;101990.53;4688022;30;20054;-69
2023/06/27 10:13:41;;;;;;;6.35;3.22;;;23.00;99.90;;;23.62;51.58;101984.09;4691889;30;20053;-70
2023/06/27 10:16:13;;;;;;;6.80;3.38;;;23.20;99.90;;;23.73;51.62;101991.78;4690521;30;20054;-70
2023/06/27 10:18:42;;;;;;;4.72;3.45;;;23.30;99.90;;;23.51;51.06;101980.94;4690440;30;20130;-70
2023/06/27 10:21:11;;;;;;;4.63;3.13;;;23.20;99.90;;;23.72;51.80;101977.38;4691599;30;20077;-70
2023/06/27 10:23:42;;;;;;;9.73;3.42;;;23.40;99.90;;;23.86;52.70;101977.69;4691352;30;20576;-70